createdAt,value
2022-07-31T08:39:04.235Z,99.99
2022-07-31T08:40:04.220Z,99.99
2022-07-31T08:41:04.189Z,99.99
2022-07-31T08:42:04.403Z,99.99
2022-07-31T08:43:19.354Z,99.99
2022-07-31T08:44:04.597Z,99.99
2022-07-31T08:45:04.136Z,99.99
2022-07-31T09:27:23.688Z,99.99
2022-07-31T09:28:25.264Z,99.99
2022-07-31T09:29:23.646Z,99.99
2022-07-31T09:30:23.630Z,99.99
2022-07-31T09:31:23.621Z,99.99
2022-07-31T09:32:23.594Z,99.99
2022-07-31T09:33:23.589Z,99.99
2022-07-31T09:34:23.582Z,99.99
2022-07-31T09:35:23.566Z,99.99
2022-07-31T09:36:23.541Z,99.99
2022-07-31T09:37:23.544Z,99.99
2022-07-31T09:38:23.515Z,99.99
2022-07-31T09:39:26.939Z,99.99
2022-07-31T09:40:23.500Z,99.99
2022-07-31T09:41:56.454Z,99.99
2022-07-31T09:42:23.472Z,99.99
2022-07-31T09:43:23.458Z,99.99
2022-07-31T09:44:25.306Z,99.99
2022-07-31T09:45:23.434Z,99.99
2022-07-31T09:46:23.422Z,99.99
2022-07-31T09:47:23.406Z,99.99
2022-07-31T09:48:26.212Z,99.99
2022-07-31T09:49:23.405Z,99.99
2022-07-31T09:50:23.376Z,99.99
2022-07-31T09:51:23.359Z,99.99
2022-07-31T09:52:23.339Z,99.99
2022-07-31T09:53:23.326Z,99.99
2022-07-31T09:54:23.320Z,99.99
2022-07-31T09:55:23.311Z,99.99
2022-07-31T09:56:23.289Z,99.99
2022-07-31T09:57:23.276Z,99.99
2022-07-31T09:58:23.283Z,99.99
2022-07-31T09:59:23.251Z,99.99
2022-07-31T10:00:23.252Z,99.99
2022-07-31T10:01:23.293Z,99.99
2022-07-31T10:02:23.234Z,99.99
2022-07-31T10:03:23.204Z,99.99
2022-07-31T10:04:23.203Z,99.99
2022-07-31T10:05:23.208Z,99.99
2022-07-31T10:06:23.181Z,99.99
2022-07-31T10:07:31.918Z,99.99
2022-07-31T10:08:23.156Z,99.99
2022-07-31T10:09:23.145Z,99.99
2022-07-31T10:10:23.145Z,99.80
2022-07-31T10:11:23.122Z,99.99
2022-07-31T10:12:23.111Z,99.22
2022-07-31T10:13:23.099Z,99.99
2022-07-31T10:14:23.089Z,99.99
2022-07-31T10:15:23.079Z,99.85
2022-07-31T10:16:23.065Z,98.83
2022-07-31T10:17:23.047Z,99.75
2022-07-31T10:18:36.105Z,99.37
2022-07-31T10:19:23.019Z,98.49
2022-07-31T10:20:23.023Z,99.99
2022-07-31T10:21:22.999Z,98.58
2022-07-31T10:22:22.988Z,99.85
2022-07-31T10:23:22.976Z,99.07
2022-07-31T10:24:27.921Z,99.51
2022-07-31T10:25:22.978Z,98.34
2022-07-31T10:26:34.327Z,97.66
2022-07-31T10:27:22.930Z,97.76
2022-07-31T10:28:22.921Z,96.98
2022-07-31T10:29:22.917Z,97.86
2022-07-31T10:30:27.363Z,97.27
2022-07-31T10:31:22.886Z,98.29
2022-07-31T10:32:22.878Z,96.64
2022-07-31T10:33:42.903Z,96.11
2022-07-31T10:34:22.877Z,95.91
2022-07-31T10:35:22.862Z,95.91
2022-07-31T10:36:22.838Z,97.52
2022-07-31T10:37:22.835Z,96.55
2022-07-31T10:38:22.824Z,97.42
2022-07-31T10:39:22.800Z,97.96
2022-07-31T10:40:22.812Z,96.35
2022-07-31T10:41:22.786Z,94.55
2022-07-31T10:42:22.776Z,96.01
2022-07-31T10:43:22.757Z,97.42
2022-07-31T10:44:22.758Z,97.37
2022-07-31T10:45:22.764Z,95.91
2022-07-31T10:46:22.740Z,95.96
2022-07-31T10:47:22.742Z,95.57
2022-07-31T10:48:22.739Z,96.40
2022-07-31T10:49:22.760Z,96.25
2022-07-31T10:50:22.699Z,94.17
2022-07-31T10:51:22.681Z,95.43
2022-07-31T10:52:22.678Z,96.55
2022-07-31T10:53:49.948Z,96.84
2022-07-31T10:54:22.654Z,96.35
2022-07-31T10:55:22.646Z,95.53
2022-07-31T10:56:22.619Z,96.11
2022-07-31T10:57:22.630Z,94.74
2022-07-31T10:58:22.609Z,96.40
2022-07-31T10:59:22.602Z,97.03
2022-07-31T11:00:22.602Z,96.20
2022-07-31T11:01:22.616Z,96.88
2022-07-31T11:02:22.567Z,94.79
2022-07-31T11:03:22.556Z,93.63
2022-07-31T11:04:22.548Z,93.92
2022-07-31T11:05:22.566Z,93.63
2022-07-31T11:06:22.525Z,93.48
2022-07-31T11:07:22.513Z,93.58
2022-07-31T11:08:22.505Z,93.44
2022-07-31T11:09:22.493Z,95.53
2022-07-31T11:10:22.509Z,94.46
2022-07-31T11:11:25.984Z,94.11
2022-07-31T11:12:22.449Z,93.04
2022-07-31T11:13:22.442Z,93.48
2022-07-31T11:14:22.438Z,92.90
2022-07-31T11:15:22.437Z,92.95
2022-07-31T11:16:22.415Z,93.63
2022-07-31T11:18:20.938Z,93.87
2022-07-31T11:18:27.406Z,93.82
2022-07-31T11:19:22.382Z,93.63
2022-07-31T11:20:22.397Z,93.39
2022-07-31T11:21:38.056Z,94.51
2022-07-31T11:22:31.788Z,94.70
2022-07-31T11:23:22.335Z,94.56
2022-07-31T11:24:22.365Z,96.01
2022-07-31T11:25:22.328Z,95.97
2022-07-31T11:26:33.421Z,96.89
2022-07-31T11:27:22.294Z,96.89
2022-07-31T11:28:22.277Z,95.57
2022-07-31T11:30:01.486Z,94.46
2022-07-31T11:30:22.276Z,93.33
2022-07-31T11:31:22.249Z,92.74
2022-07-31T11:32:22.972Z,91.42
2022-07-31T11:33:22.217Z,90.95
2022-07-31T11:34:22.215Z,92.16
2022-07-31T11:35:22.215Z,90.20
2022-07-31T11:36:22.190Z,89.67
2022-07-31T11:37:22.168Z,88.15
2022-07-31T11:38:22.160Z,86.68
2022-07-31T11:39:28.876Z,86.20
2022-07-31T11:40:27.345Z,86.90
2022-07-31T11:41:22.918Z,87.56
2022-07-31T11:42:26.398Z,87.04
2022-07-31T11:43:26.156Z,88.23
2022-07-31T11:44:22.105Z,89.78
2022-07-31T11:45:22.095Z,91.05
2022-07-31T11:46:22.151Z,90.61
2022-07-31T11:48:10.151Z,89.78
2022-07-31T11:48:22.052Z,89.29
2022-07-31T11:49:22.137Z,89.51
2022-07-31T11:50:22.058Z,86.49
2022-07-31T11:51:22.018Z,85.60
2022-07-31T11:52:31.101Z,86.00
2022-07-31T11:53:21.999Z,87.85
2022-07-31T11:54:21.995Z,85.95
2022-07-31T11:55:21.999Z,85.35
2022-07-31T11:56:21.975Z,85.10
2022-07-31T11:57:21.957Z,82.91
2022-07-31T11:58:21.958Z,84.11
2022-07-31T11:59:45.203Z,87.29
2022-07-31T12:00:26.811Z,89.10
2022-07-31T12:01:21.917Z,89.38
2022-07-31T12:02:21.957Z,89.34
2022-07-31T12:03:21.927Z,90.02
2022-07-31T12:04:21.887Z,89.73
2022-07-31T12:05:36.186Z,90.36
2022-07-31T12:06:21.886Z,90.06
2022-07-31T12:07:21.869Z,89.67
2022-07-31T12:08:21.848Z,89.73
2022-07-31T12:10:02.555Z,90.51
2022-07-31T12:10:21.849Z,90.85
2022-07-31T12:11:21.821Z,91.10
2022-07-31T12:12:21.802Z,90.66
2022-07-31T12:13:21.799Z,90.89
2022-07-31T12:14:21.797Z,90.75
2022-07-31T12:15:21.802Z,89.19
2022-07-31T12:16:21.775Z,88.31
2022-07-31T12:17:21.759Z,88.10
2022-07-31T12:18:21.746Z,87.08
2022-07-31T12:19:21.748Z,86.20
2022-07-31T12:20:34.861Z,85.50
2022-07-31T12:21:21.731Z,84.77
2022-07-31T12:22:21.721Z,82.42
2022-07-31T12:23:40.766Z,81.92
2022-07-31T12:24:21.688Z,80.19
2022-07-31T12:25:21.694Z,79.61
2022-07-31T12:26:21.691Z,80.39
2022-07-31T12:27:21.661Z,80.21
2022-07-31T12:28:21.651Z,80.76
2022-07-31T12:29:21.640Z,81.45
2022-07-31T12:30:21.641Z,80.31
2022-07-31T12:31:21.646Z,81.85
2022-07-31T12:32:21.623Z,82.53
2022-07-31T12:33:21.613Z,82.45
2022-07-31T12:34:21.594Z,83.41
2022-07-31T12:35:21.586Z,83.18
2022-07-31T12:36:21.585Z,84.05
2022-07-31T12:37:21.567Z,83.33
2022-07-31T12:38:38.219Z,83.29
2022-07-31T12:39:21.548Z,83.56
2022-07-31T12:40:21.547Z,82.50
2022-07-31T12:41:21.540Z,81.75
2022-07-31T12:42:21.529Z,81.60
2022-07-31T12:43:21.520Z,80.72
2022-07-31T12:44:22.194Z,79.64
2022-07-31T12:45:21.494Z,79.63
2022-07-31T12:46:21.493Z,77.73
2022-07-31T12:47:21.472Z,77.54
2022-07-31T12:48:21.461Z,76.89
2022-07-31T12:49:21.486Z,76.87
2022-07-31T12:50:21.483Z,74.62
2022-07-31T12:51:44.300Z,75.38
2022-07-31T12:52:21.434Z,75.34
2022-07-31T12:53:21.424Z,74.65
2022-07-31T12:54:21.416Z,76.05
2022-07-31T12:55:21.404Z,77.25
2022-07-31T12:56:21.406Z,79.33
2022-07-31T12:57:21.378Z,82.23
2022-07-31T12:58:21.375Z,83.54
2022-07-31T12:59:21.367Z,83.47
2022-07-31T13:00:21.351Z,80.58
2022-07-31T13:01:21.387Z,79.74
2022-07-31T13:02:21.330Z,79.82
2022-07-31T13:03:21.320Z,78.22
2022-07-31T13:04:21.310Z,75.81
2022-07-31T13:05:21.315Z,77.25
2022-07-31T13:06:21.315Z,79.69
2022-07-31T13:07:21.286Z,80.08
2022-07-31T13:08:21.284Z,79.84
2022-07-31T13:09:21.293Z,80.27
2022-07-31T13:10:24.826Z,80.70
2022-07-31T13:11:21.264Z,82.10
2022-07-31T13:12:21.260Z,81.91
2022-07-31T13:13:21.235Z,82.18
2022-07-31T13:14:21.225Z,81.51
2022-07-31T13:15:21.226Z,83.43
2022-07-31T13:16:21.229Z,76.75
2022-07-31T13:17:21.212Z,77.14
2022-07-31T13:18:21.189Z,78.20
2022-07-31T13:19:21.183Z,79.10
2022-07-31T13:20:21.183Z,80.19
2022-07-31T13:21:21.187Z,78.86
2022-07-31T13:22:21.158Z,77.81
2022-07-31T13:23:21.160Z,78.71
2022-07-31T13:24:21.144Z,80.76
2022-07-31T13:25:21.142Z,80.33
2022-07-31T13:26:21.136Z,81.64
2022-07-31T13:27:21.125Z,81.74
2022-07-31T13:28:21.116Z,82.14
2022-07-31T13:29:21.101Z,82.38
2022-07-31T13:30:21.093Z,81.84
2022-07-31T13:31:21.102Z,81.77
2022-07-31T13:32:21.077Z,82.17
2022-07-31T13:33:21.068Z,81.38
2022-07-31T13:34:21.069Z,80.99
2022-07-31T13:35:27.834Z,81.84
2022-07-31T13:36:21.057Z,79.29
2022-07-31T13:37:21.048Z,78.67
2022-07-31T13:38:21.029Z,78.23
2022-07-31T13:39:21.020Z,78.35
2022-07-31T13:40:21.014Z,79.57
2022-07-31T13:41:21.030Z,81.79
2022-07-31T13:42:20.999Z,82.57
2022-07-31T13:43:20.998Z,84.78
2022-07-31T13:44:20.990Z,84.64
2022-07-31T13:45:20.984Z,84.93
2022-07-31T13:46:20.978Z,84.83
2022-07-31T13:47:20.965Z,84.54
2022-07-31T13:48:20.949Z,85.55
2022-07-31T13:49:20.982Z,82.15
2022-07-31T13:50:20.943Z,80.17
2022-07-31T13:51:23.952Z,79.61
2022-07-31T13:52:20.919Z,80.13
2022-07-31T13:53:20.912Z,78.61
2022-07-31T13:54:20.913Z,79.16
2022-07-31T13:55:20.898Z,79.66
2022-07-31T13:56:37.502Z,78.80
2022-07-31T13:57:20.892Z,78.47
2022-07-31T13:58:20.876Z,80.64
2022-07-31T13:59:20.879Z,80.15
2022-07-31T14:00:20.860Z,80.70
2022-07-31T14:01:20.888Z,80.35
2022-07-31T14:02:21.227Z,80.76
2022-07-31T14:03:21.148Z,81.21
2022-07-31T14:04:23.610Z,83.86
2022-07-31T14:05:20.834Z,84.89
2022-07-31T14:06:20.830Z,86.02
2022-07-31T14:07:20.823Z,85.38
2022-07-31T14:08:33.362Z,85.57
2022-07-31T14:09:20.799Z,84.43
2022-07-31T14:10:21.158Z,83.80
2022-07-31T14:11:20.802Z,84.54
2022-07-31T14:12:20.785Z,85.61
2022-07-31T14:13:20.778Z,85.07
2022-07-31T14:14:23.001Z,84.78
2022-07-31T14:15:20.761Z,83.65
2022-07-31T14:16:20.755Z,83.51
2022-07-31T14:17:20.746Z,84.34
2022-07-31T14:18:20.728Z,86.65
2022-07-31T14:19:20.730Z,86.24
2022-07-31T14:20:20.712Z,84.97
2022-07-31T14:21:20.727Z,84.88
2022-07-31T14:22:20.703Z,87.13
2022-07-31T14:23:20.703Z,87.48
2022-07-31T14:24:20.682Z,88.45
2022-07-31T14:25:20.688Z,88.90
2022-07-31T14:26:20.683Z,89.34
2022-07-31T14:27:20.671Z,89.73
2022-07-31T14:28:20.660Z,89.47
2022-07-31T14:29:20.644Z,89.11
2022-07-31T14:30:20.645Z,85.60
2022-07-31T14:31:20.659Z,86.48
2022-07-31T14:32:20.625Z,85.74
2022-07-31T14:33:20.614Z,86.36
2022-07-31T14:34:20.613Z,85.45
2022-07-31T14:35:20.606Z,86.29
2022-07-31T14:36:20.607Z,87.57
2022-07-31T14:37:20.741Z,88.98
2022-07-31T14:38:26.952Z,88.44
2022-07-31T14:39:20.578Z,88.54
2022-07-31T14:40:20.555Z,90.10
2022-07-31T14:41:20.561Z,88.83
2022-07-31T14:42:22.328Z,89.33
2022-07-31T14:43:20.544Z,90.26
2022-07-31T14:44:21.440Z,90.11
2022-07-31T14:45:20.516Z,89.87
2022-07-31T14:46:20.526Z,90.30
2022-07-31T14:47:20.502Z,88.96
2022-07-31T14:48:20.491Z,88.78
2022-07-31T14:49:20.542Z,89.33
2022-07-31T14:50:20.583Z,89.62
2022-07-31T14:51:20.478Z,91.13
2022-07-31T14:52:20.472Z,90.69
2022-07-31T14:53:20.448Z,89.72
2022-07-31T14:54:20.454Z,89.12
2022-07-31T14:55:20.432Z,90.00
2022-07-31T14:56:34.699Z,89.12
2022-07-31T14:57:22.492Z,89.47
2022-07-31T14:58:20.414Z,89.67
2022-07-31T14:59:20.411Z,90.31
2022-07-31T15:00:20.389Z,91.09
2022-07-31T15:01:20.424Z,90.89
2022-07-31T15:02:22.697Z,90.20
2022-07-31T15:03:20.374Z,89.12
2022-07-31T15:04:20.356Z,87.64
2022-07-31T15:06:48.788Z,83.34
2022-07-31T15:06:49.341Z,85.36
2022-07-31T15:07:38.525Z,83.46
2022-07-31T15:08:20.332Z,84.41
2022-07-31T15:09:20.315Z,86.15
2022-07-31T15:10:20.314Z,88.01
2022-07-31T15:11:20.321Z,88.75
2022-07-31T15:16:27.606Z,91.87
2022-07-31T15:17:27.586Z,91.97
2022-07-31T15:18:27.570Z,91.87
2022-07-31T15:19:27.566Z,92.40
2022-07-31T15:20:28.844Z,90.30
2022-07-31T15:21:27.553Z,89.56
2022-07-31T15:22:27.590Z,87.65
2022-07-31T15:23:27.531Z,88.68
2022-07-31T15:24:27.515Z,88.78
2022-07-31T15:25:27.510Z,88.83
2022-07-31T15:26:27.523Z,89.47
2022-07-31T15:27:27.500Z,88.44
2022-07-31T15:28:27.492Z,87.79
2022-07-31T15:30:05.764Z,86.07
2022-07-31T15:30:27.469Z,85.63
2022-07-31T15:31:27.480Z,85.43
2022-07-31T15:32:27.511Z,85.96
2022-07-31T15:33:27.443Z,85.36
2022-07-31T15:34:27.454Z,83.29
2022-07-31T15:35:27.437Z,82.66
2022-07-31T15:36:27.452Z,83.17
2022-07-31T15:37:27.428Z,84.34
2022-07-31T15:38:27.411Z,85.00
2022-07-31T15:39:27.412Z,86.43
2022-07-31T15:40:27.408Z,87.21
2022-07-31T15:41:27.403Z,87.01
2022-07-31T15:42:27.387Z,88.44
2022-07-31T15:48:10.034Z,93.28
2022-07-31T15:49:07.882Z,91.32
2022-07-31T15:50:07.818Z,91.67
2022-07-31T15:51:07.812Z,89.22
2022-07-31T15:52:15.235Z,88.24
2022-07-31T15:53:07.793Z,88.59
2022-07-31T15:54:07.789Z,89.51
2022-07-31T15:55:07.777Z,87.50
2022-07-31T15:56:07.779Z,85.43
2022-07-31T15:57:07.812Z,85.63
2022-07-31T15:58:07.742Z,86.66
2022-07-31T15:59:07.733Z,87.60
2022-07-31T16:08:55.263Z,92.80
2022-07-31T16:10:03.534Z,91.28
2022-07-31T16:10:55.336Z,90.11
2022-07-31T16:23:03.281Z,92.74
2022-07-31T16:47:14.098Z,92.46
2022-07-31T16:48:14.070Z,92.06
2022-07-31T16:49:36.223Z,89.61
